sensor_id;sensor_type;location;lat;lon;timestamp;P1;durP1;ratioP1;P2;durP2;ratioP2
70707;SDS011;58277;47.316;18.908;2023-08-06T00:00:05;12.77;;;7.00;;
70707;SDS011;58277;47.316;18.908;2023-08-06T00:02:30;12.63;;;7.50;;
70707;SDS011;58277;47.316;18.908;2023-08-06T00:04:53;11.70;;;7.57;;
70707;SDS011;58277;47.316;18.908;2023-08-06T00:07:16;13.25;;;8.00;;
70707;SDS011;58277;47.316;18.908;2023-08-06T00:09:39;13.52;;;8.07;;
70707;SDS011;58277;47.316;18.908;2023-08-06T00:12:01;11.93;;;7.47;;
70707;SDS011;58277;47.316;18.908;2023-08-06T00:14:24;12.23;;;7.28;;
70707;SDS011;58277;47.316;18.908;2023-08-06T00:16:47;12.88;;;7.50;;
70707;SDS011;58277;47.316;18.908;2023-08-06T00:19:10;13.43;;;7.35;;
70707;SDS011;58277;47.316;18.908;2023-08-06T00:21:33;11.55;;;7.60;;
70707;SDS011;58277;47.316;18.908;2023-08-06T00:23:55;14.15;;;7.82;;
70707;SDS011;58277;47.316;18.908;2023-08-06T00:26:18;11.75;;;7.20;;
70707;SDS011;58277;47.316;18.908;2023-08-06T00:28:42;11.27;;;7.07;;
70707;SDS011;58277;47.316;18.908;2023-08-06T00:31:04;12.50;;;6.88;;
70707;SDS011;58277;47.316;18.908;2023-08-06T00:33:28;10.25;;;6.53;;
70707;SDS011;58277;47.316;18.908;2023-08-06T00:35:50;10.15;;;6.57;;
70707;SDS011;58277;47.316;18.908;2023-08-06T00:38:13;10.98;;;6.95;;
70707;SDS011;58277;47.316;18.908;2023-08-06T00:40:36;10.30;;;6.60;;
70707;SDS011;58277;47.316;18.908;2023-08-06T00:42:59;10.65;;;6.80;;
70707;SDS011;58277;47.316;18.908;2023-08-06T00:45:21;11.55;;;6.60;;
70707;SDS011;58277;47.316;18.908;2023-08-06T00:47:46;9.73;;;6.47;;
70707;SDS011;58277;47.316;18.908;2023-08-06T00:50:11;12.05;;;6.85;;
70707;SDS011;58277;47.316;18.908;2023-08-06T00:52:34;10.95;;;6.57;;
70707;SDS011;58277;47.316;18.908;2023-08-06T00:54:57;11.25;;;6.45;;
70707;SDS011;58277;47.316;18.908;2023-08-06T00:57:20;11.32;;;6.63;;
70707;SDS011;58277;47.316;18.908;2023-08-06T00:59:45;9.77;;;6.68;;
70707;SDS011;58277;47.316;18.908;2023-08-06T01:02:08;10.32;;;6.75;;
70707;SDS011;58277;47.316;18.908;2023-08-06T01:04:31;14.35;;;7.75;;
70707;SDS011;58277;47.316;18.908;2023-08-06T01:06:59;12.32;;;7.60;;
70707;SDS011;58277;47.316;18.908;2023-08-06T01:17:14;13.38;;;7.40;;
70707;SDS011;58277;47.316;18.908;2023-08-06T01:19:38;13.45;;;7.30;;
70707;SDS011;58277;47.316;18.908;2023-08-06T01:22:00;14.25;;;7.43;;
70707;SDS011;58277;47.316;18.908;2023-08-06T01:24:23;14.23;;;7.85;;
70707;SDS011;58277;47.316;18.908;2023-08-06T01:26:51;13.80;;;8.00;;
70707;SDS011;58277;47.316;18.908;2023-08-06T01:29:34;14.68;;;7.88;;
70707;SDS011;58277;47.316;18.908;2023-08-06T01:32:01;13.35;;;7.63;;
70707;SDS011;58277;47.316;18.908;2023-08-06T01:34:26;14.27;;;7.72;;
70707;SDS011;58277;47.316;18.908;2023-08-06T01:37:12;15.43;;;7.68;;
70707;SDS011;58277;47.316;18.908;2023-08-06T01:39:35;14.55;;;8.05;;
70707;SDS011;58277;47.316;18.908;2023-08-06T01:41:59;13.93;;;7.80;;
70707;SDS011;58277;47.316;18.908;2023-08-06T01:44:21;13.85;;;7.72;;
70707;SDS011;58277;47.316;18.908;2023-08-06T01:46:44;13.85;;;8.00;;
70707;SDS011;58277;47.316;18.908;2023-08-06T01:49:07;15.02;;;7.95;;
70707;SDS011;58277;47.316;18.908;2023-08-06T01:51:29;15.73;;;8.02;;
70707;SDS011;58277;47.316;18.908;2023-08-06T01:53:52;13.27;;;7.80;;
70707;SDS011;58277;47.316;18.908;2023-08-06T01:56:15;13.90;;;7.28;;
70707;SDS011;58277;47.316;18.908;2023-08-06T01:58:39;12.93;;;7.57;;
70707;SDS011;58277;47.316;18.908;2023-08-06T02:01:02;12.75;;;7.18;;
70707;SDS011;58277;47.316;18.908;2023-08-06T02:03:25;13.60;;;7.50;;
70707;SDS011;58277;47.316;18.908;2023-08-06T02:05:47;12.07;;;6.78;;
70707;SDS011;58277;47.316;18.908;2023-08-06T02:08:10;11.68;;;6.93;;
70707;SDS011;58277;47.316;18.908;2023-08-06T02:10:33;12.65;;;6.97;;
70707;SDS011;58277;47.316;18.908;2023-08-06T02:12:55;12.55;;;6.93;;
70707;SDS011;58277;47.316;18.908;2023-08-06T02:15:18;12.57;;;6.93;;
70707;SDS011;58277;47.316;18.908;2023-08-06T02:17:41;12.68;;;6.60;;
70707;SDS011;58277;47.316;18.908;2023-08-06T02:20:03;12.45;;;6.25;;
70707;SDS011;58277;47.316;18.908;2023-08-06T02:22:27;11.25;;;6.10;;
70707;SDS011;58277;47.316;18.908;2023-08-06T02:24:49;11.93;;;6.40;;
70707;SDS011;58277;47.316;18.908;2023-08-06T02:27:12;9.45;;;5.28;;
70707;SDS011;58277;47.316;18.908;2023-08-06T02:29:35;8.02;;;4.90;;
70707;SDS011;58277;47.316;18.908;2023-08-06T02:31:59;8.77;;;4.75;;
70707;SDS011;58277;47.316;18.908;2023-08-06T02:34:24;7.78;;;5.10;;
70707;SDS011;58277;47.316;18.908;2023-08-06T02:36:47;8.68;;;5.07;;
70707;SDS011;58277;47.316;18.908;2023-08-06T02:39:09;7.60;;;4.75;;
70707;SDS011;58277;47.316;18.908;2023-08-06T02:41:32;7.95;;;5.00;;
70707;SDS011;58277;47.316;18.908;2023-08-06T02:43:55;8.52;;;5.15;;
70707;SDS011;58277;47.316;18.908;2023-08-06T02:46:18;8.30;;;4.78;;
70707;SDS011;58277;47.316;18.908;2023-08-06T02:48:40;8.40;;;4.82;;
70707;SDS011;58277;47.316;18.908;2023-08-06T02:51:03;10.88;;;5.20;;
70707;SDS011;58277;47.316;18.908;2023-08-06T02:53:27;8.20;;;4.93;;
70707;SDS011;58277;47.316;18.908;2023-08-06T02:55:51;8.05;;;4.78;;
70707;SDS011;58277;47.316;18.908;2023-08-06T02:58:19;9.48;;;4.85;;
70707;SDS011;58277;47.316;18.908;2023-08-06T03:00:59;7.05;;;4.75;;
70707;SDS011;58277;47.316;18.908;2023-08-06T03:03:23;8.20;;;4.88;;
70707;SDS011;58277;47.316;18.908;2023-08-06T03:08:56;9.73;;;5.47;;
70707;SDS011;58277;47.316;18.908;2023-08-06T03:11:20;9.48;;;5.25;;
70707;SDS011;58277;47.316;18.908;2023-08-06T03:13:49;8.57;;;5.15;;
70707;SDS011;58277;47.316;18.908;2023-08-06T03:16:12;8.98;;;5.20;;
70707;SDS011;58277;47.316;18.908;2023-08-06T03:18:36;8.48;;;4.80;;
70707;SDS011;58277;47.316;18.908;2023-08-06T03:21:00;9.57;;;5.10;;
70707;SDS011;58277;47.316;18.908;2023-08-06T03:23:25;8.93;;;4.80;;
70707;SDS011;58277;47.316;18.908;2023-08-06T03:25:48;8.57;;;4.95;;
70707;SDS011;58277;47.316;18.908;2023-08-06T03:28:12;8.88;;;5.13;;
70707;SDS011;58277;47.316;18.908;2023-08-06T03:30:35;9.15;;;4.88;;
70707;SDS011;58277;47.316;18.908;2023-08-06T03:32:57;7.93;;;5.05;;
70707;SDS011;58277;47.316;18.908;2023-08-06T03:35:20;9.18;;;5.22;;
70707;SDS011;58277;47.316;18.908;2023-08-06T03:37:43;9.65;;;5.30;;
70707;SDS011;58277;47.316;18.908;2023-08-06T03:40:06;7.82;;;5.05;;
70707;SDS011;58277;47.316;18.908;2023-08-06T03:42:30;8.40;;;4.65;;
70707;SDS011;58277;47.316;18.908;2023-08-06T03:44:52;5.88;;;3.33;;
70707;SDS011;58277;47.316;18.908;2023-08-06T03:47:15;5.88;;;3.22;;
70707;SDS011;58277;47.316;18.908;2023-08-06T03:49:39;6.35;;;2.92;;
70707;SDS011;58277;47.316;18.908;2023-08-06T03:52:03;6.07;;;2.45;;
70707;SDS011;58277;47.316;18.908;2023-08-06T03:54:26;6.57;;;2.70;;
70707;SDS011;58277;47.316;18.908;2023-08-06T03:56:48;5.18;;;2.53;;
70707;SDS011;58277;47.316;18.908;2023-08-06T03:59:11;5.15;;;2.60;;
70707;SDS011;58277;47.316;18.908;2023-08-06T04:01:35;4.38;;;3.00;;
70707;SDS011;58277;47.316;18.908;2023-08-06T04:03:57;5.63;;;3.20;;
70707;SDS011;58277;47.316;18.908;2023-08-06T04:06:20;4.10;;;2.97;;
70707;SDS011;58277;47.316;18.908;2023-08-06T04:08:43;5.70;;;3.10;;
70707;SDS011;58277;47.316;18.908;2023-08-06T04:11:06;4.68;;;2.90;;
70707;SDS011;58277;47.316;18.908;2023-08-06T04:13:29;4.85;;;2.65;;
70707;SDS011;58277;47.316;18.908;2023-08-06T04:15:53;5.30;;;3.35;;
70707;SDS011;58277;47.316;18.908;2023-08-06T04:18:16;5.50;;;3.58;;
70707;SDS011;58277;47.316;18.908;2023-08-06T04:20:44;6.60;;;3.50;;
70707;SDS011;58277;47.316;18.908;2023-08-06T04:23:07;5.72;;;3.60;;
70707;SDS011;58277;47.316;18.908;2023-08-06T04:25:30;6.32;;;3.45;;
70707;SDS011;58277;47.316;18.908;2023-08-06T04:27:53;5.30;;;3.42;;
70707;SDS011;58277;47.316;18.908;2023-08-06T04:30:16;7.10;;;3.40;;
70707;SDS011;58277;47.316;18.908;2023-08-06T04:32:40;6.65;;;3.38;;
70707;SDS011;58277;47.316;18.908;2023-08-06T04:35:03;4.82;;;2.42;;
70707;SDS011;58277;47.316;18.908;2023-08-06T04:37:26;3.40;;;2.50;;
70707;SDS011;58277;47.316;18.908;2023-08-06T04:39:49;5.03;;;2.42;;
70707;SDS011;58277;47.316;18.908;2023-08-06T04:42:13;3.55;;;1.95;;
70707;SDS011;58277;47.316;18.908;2023-08-06T04:44:36;3.40;;;1.65;;
70707;SDS011;58277;47.316;18.908;2023-08-06T04:46:59;2.38;;;1.10;;
70707;SDS011;58277;47.316;18.908;2023-08-06T04:49:22;4.00;;;1.20;;
70707;SDS011;58277;47.316;18.908;2023-08-06T04:51:45;2.90;;;1.00;;
70707;SDS011;58277;47.316;18.908;2023-08-06T04:54:08;1.48;;;0.82;;
70707;SDS011;58277;47.316;18.908;2023-08-06T04:56:31;1.77;;;0.98;;
70707;SDS011;58277;47.316;18.908;2023-08-06T04:58:54;2.22;;;0.98;;
70707;SDS011;58277;47.316;18.908;2023-08-06T05:01:17;1.48;;;0.80;;
70707;SDS011;58277;47.316;18.908;2023-08-06T05:03:40;2.20;;;0.90;;
70707;SDS011;58277;47.316;18.908;2023-08-06T05:06:03;2.90;;;0.93;;
70707;SDS011;58277;47.316;18.908;2023-08-06T05:08:25;1.30;;;0.82;;
70707;SDS011;58277;47.316;18.908;2023-08-06T05:10:48;2.65;;;0.60;;
70707;SDS011;58277;47.316;18.908;2023-08-06T05:13:11;0.73;;;0.40;;
70707;SDS011;58277;47.316;18.908;2023-08-06T05:15:34;1.23;;;0.50;;
70707;SDS011;58277;47.316;18.908;2023-08-06T05:17:57;1.33;;;0.30;;
70707;SDS011;58277;47.316;18.908;2023-08-06T05:20:20;0.50;;;0.30;;
70707;SDS011;58277;47.316;18.908;2023-08-06T05:22:43;0.60;;;0.40;;
70707;SDS011;58277;47.316;18.908;2023-08-06T05:25:06;0.55;;;0.30;;
70707;SDS011;58277;47.316;18.908;2023-08-06T05:27:29;0.60;;;0.30;;
70707;SDS011;58277;47.316;18.908;2023-08-06T05:29:54;2.90;;;0.30;;
70707;SDS011;58277;47.316;18.908;2023-08-06T05:32:18;0.73;;;0.30;;
70707;SDS011;58277;47.316;18.908;2023-08-06T05:34:40;1.48;;;0.20;;
70707;SDS011;58277;47.316;18.908;2023-08-06T05:37:04;0.30;;;0.20;;
70707;SDS011;58277;47.316;18.908;2023-08-06T05:39:26;1.25;;;0.30;;
70707;SDS011;58277;47.316;18.908;2023-08-06T05:41:49;0.57;;;0.30;;
70707;SDS011;58277;47.316;18.908;2023-08-06T05:44:13;0.45;;;0.15;;
70707;SDS011;58277;47.316;18.908;2023-08-06T05:46:35;0.52;;;0.30;;
70707;SDS011;58277;47.316;18.908;2023-08-06T05:48:58;0.50;;;0.20;;
70707;SDS011;58277;47.316;18.908;2023-08-06T05:51:21;0.73;;;0.20;;
70707;SDS011;58277;47.316;18.908;2023-08-06T05:53:43;2.17;;;0.20;;
70707;SDS011;58277;47.316;18.908;2023-08-06T05:56:08;1.30;;;0.20;;
70707;SDS011;58277;47.316;18.908;2023-08-06T05:58:30;0.50;;;0.20;;
70707;SDS011;58277;47.316;18.908;2023-08-06T06:00:53;0.40;;;0.20;;
70707;SDS011;58277;47.316;18.908;2023-08-06T06:03:15;0.68;;;0.30;;
70707;SDS011;58277;47.316;18.908;2023-08-06T06:05:38;0.98;;;0.20;;
70707;SDS011;58277;47.316;18.908;2023-08-06T06:08:01;0.70;;;0.40;;
70707;SDS011;58277;47.316;18.908;2023-08-06T06:10:24;1.25;;;0.30;;
70707;SDS011;58277;47.316;18.908;2023-08-06T06:12:46;0.60;;;0.40;;
70707;SDS011;58277;47.316;18.908;2023-08-06T06:15:09;1.00;;;0.20;;
70707;SDS011;58277;47.316;18.908;2023-08-06T06:17:32;0.50;;;0.30;;
70707;SDS011;58277;47.316;18.908;2023-08-06T06:19:55;3.17;;;0.35;;
70707;SDS011;58277;47.316;18.908;2023-08-06T06:22:18;0.98;;;0.30;;
70707;SDS011;58277;47.316;18.908;2023-08-06T06:24:41;0.88;;;0.40;;
70707;SDS011;58277;47.316;18.908;2023-08-06T06:27:04;0.60;;;0.30;;
70707;SDS011;58277;47.316;18.908;2023-08-06T06:29:27;0.60;;;0.45;;
70707;SDS011;58277;47.316;18.908;2023-08-06T06:31:50;0.65;;;0.40;;
70707;SDS011;58277;47.316;18.908;2023-08-06T06:34:13;0.70;;;0.43;;
70707;SDS011;58277;47.316;18.908;2023-08-06T06:36:35;0.93;;;0.30;;
70707;SDS011;58277;47.316;18.908;2023-08-06T06:38:58;0.50;;;0.30;;
70707;SDS011;58277;47.316;18.908;2023-08-06T06:41:21;0.50;;;0.30;;
70707;SDS011;58277;47.316;18.908;2023-08-06T06:43:44;1.15;;;0.30;;
70707;SDS011;58277;47.316;18.908;2023-08-06T06:46:06;1.02;;;0.30;;
70707;SDS011;58277;47.316;18.908;2023-08-06T06:48:31;1.08;;;0.40;;
70707;SDS011;58277;47.316;18.908;2023-08-06T06:50:55;0.60;;;0.38;;
70707;SDS011;58277;47.316;18.908;2023-08-06T06:53:18;0.80;;;0.45;;
70707;SDS011;58277;47.316;18.908;2023-08-06T06:55:41;1.83;;;0.40;;
70707;SDS011;58277;47.316;18.908;2023-08-06T06:58:03;0.95;;;0.40;;
70707;SDS011;58277;47.316;18.908;2023-08-06T07:00:26;0.75;;;0.40;;
70707;SDS011;58277;47.316;18.908;2023-08-06T07:02:49;0.75;;;0.30;;
70707;SDS011;58277;47.316;18.908;2023-08-06T07:05:11;0.52;;;0.32;;
70707;SDS011;58277;47.316;18.908;2023-08-06T07:07:34;0.60;;;0.40;;
70707;SDS011;58277;47.316;18.908;2023-08-06T07:09:57;0.60;;;0.30;;
70707;SDS011;58277;47.316;18.908;2023-08-06T07:12:20;0.60;;;0.40;;
70707;SDS011;58277;47.316;18.908;2023-08-06T07:14:44;1.13;;;0.32;;
70707;SDS011;58277;47.316;18.908;2023-08-06T07:17:06;0.60;;;0.50;;
70707;SDS011;58277;47.316;18.908;2023-08-06T07:19:29;0.70;;;0.40;;
70707;SDS011;58277;47.316;18.908;2023-08-06T07:21:52;1.00;;;0.30;;
70707;SDS011;58277;47.316;18.908;2023-08-06T07:24:15;0.70;;;0.40;;
70707;SDS011;58277;47.316;18.908;2023-08-06T07:26:39;0.85;;;0.50;;
70707;SDS011;58277;47.316;18.908;2023-08-06T07:29:01;0.60;;;0.43;;
70707;SDS011;58277;47.316;18.908;2023-08-06T07:31:24;1.00;;;0.45;;
70707;SDS011;58277;47.316;18.908;2023-08-06T07:33:48;1.45;;;0.50;;
70707;SDS011;58277;47.316;18.908;2023-08-06T07:36:11;0.55;;;0.40;;
70707;SDS011;58277;47.316;18.908;2023-08-06T07:38:36;0.85;;;0.35;;
70707;SDS011;58277;47.316;18.908;2023-08-06T07:41:01;1.00;;;0.60;;
70707;SDS011;58277;47.316;18.908;2023-08-06T07:43:24;1.58;;;0.40;;
70707;SDS011;58277;47.316;18.908;2023-08-06T07:45:46;1.58;;;0.50;;
70707;SDS011;58277;47.316;18.908;2023-08-06T07:48:09;0.70;;;0.30;;
70707;SDS011;58277;47.316;18.908;2023-08-06T07:50:32;0.65;;;0.40;;
70707;SDS011;58277;47.316;18.908;2023-08-06T07:52:54;0.70;;;0.40;;
70707;SDS011;58277;47.316;18.908;2023-08-06T07:55:17;0.75;;;0.50;;
70707;SDS011;58277;47.316;18.908;2023-08-06T07:57:40;0.70;;;0.35;;
70707;SDS011;58277;47.316;18.908;2023-08-06T08:00:03;0.65;;;0.45;;
70707;SDS011;58277;47.316;18.908;2023-08-06T08:02:33;1.60;;;0.30;;
70707;SDS011;58277;47.316;18.908;2023-08-06T08:04:56;0.80;;;0.57;;
70707;SDS011;58277;47.316;18.908;2023-08-06T08:07:19;0.70;;;0.40;;
70707;SDS011;58277;47.316;18.908;2023-08-06T08:14:18;0.90;;;0.40;;
70707;SDS011;58277;47.316;18.908;2023-08-06T08:16:59;0.77;;;0.43;;
70707;SDS011;58277;47.316;18.908;2023-08-06T08:19:21;0.70;;;0.40;;
70707;SDS011;58277;47.316;18.908;2023-08-06T08:21:45;0.70;;;0.50;;
70707;SDS011;58277;47.316;18.908;2023-08-06T08:24:07;1.23;;;0.90;;
70707;SDS011;58277;47.316;18.908;2023-08-06T08:26:30;0.90;;;0.63;;
70707;SDS011;58277;47.316;18.908;2023-08-06T08:28:53;1.10;;;0.70;;
70707;SDS011;58277;47.316;18.908;2023-08-06T08:31:16;0.90;;;0.52;;
70707;SDS011;58277;47.316;18.908;2023-08-06T08:33:39;2.00;;;0.90;;
70707;SDS011;58277;47.316;18.908;2023-08-06T08:36:01;1.25;;;0.60;;
70707;SDS011;58277;47.316;18.908;2023-08-06T08:38:24;1.27;;;0.90;;
70707;SDS011;58277;47.316;18.908;2023-08-06T08:40:47;0.90;;;0.60;;
70707;SDS011;58277;47.316;18.908;2023-08-06T08:43:15;1.88;;;0.90;;
70707;SDS011;58277;47.316;18.908;2023-08-06T08:45:39;1.50;;;1.02;;
70707;SDS011;58277;47.316;18.908;2023-08-06T08:48:02;1.50;;;0.82;;
70707;SDS011;58277;47.316;18.908;2023-08-06T08:50:25;1.88;;;1.02;;
70707;SDS011;58277;47.316;18.908;2023-08-06T08:52:47;1.20;;;1.10;;
70707;SDS011;58277;47.316;18.908;2023-08-06T08:55:14;1.30;;;1.10;;
70707;SDS011;58277;47.316;18.908;2023-08-06T08:57:37;1.30;;;1.00;;
70707;SDS011;58277;47.316;18.908;2023-08-06T09:00:00;1.35;;;1.00;;
70707;SDS011;58277;47.316;18.908;2023-08-06T09:02:23;1.30;;;1.05;;
70707;SDS011;58277;47.316;18.908;2023-08-06T09:04:50;2.65;;;1.05;;
70707;SDS011;58277;47.316;18.908;2023-08-06T09:07:14;2.67;;;1.10;;
70707;SDS011;58277;47.316;18.908;2023-08-06T09:09:42;1.30;;;1.00;;
70707;SDS011;58277;47.316;18.908;2023-08-06T09:12:25;1.58;;;1.10;;
70707;SDS011;58277;47.316;18.908;2023-08-06T09:14:49;1.20;;;0.88;;
70707;SDS011;58277;47.316;18.908;2023-08-06T09:17:12;1.60;;;1.20;;
70707;SDS011;58277;47.316;18.908;2023-08-06T09:19:35;1.52;;;1.05;;
70707;SDS011;58277;47.316;18.908;2023-08-06T09:21:58;1.95;;;1.10;;
70707;SDS011;58277;47.316;18.908;2023-08-06T09:24:21;1.40;;;1.08;;
70707;SDS011;58277;47.316;18.908;2023-08-06T09:26:45;2.10;;;1.00;;
70707;SDS011;58277;47.316;18.908;2023-08-06T09:29:08;1.50;;;1.20;;
70707;SDS011;58277;47.316;18.908;2023-08-06T09:31:43;1.52;;;1.23;;
70707;SDS011;58277;47.316;18.908;2023-08-06T09:34:10;2.00;;;1.15;;
70707;SDS011;58277;47.316;18.908;2023-08-06T09:36:39;1.60;;;0.90;;
70707;SDS011;58277;47.316;18.908;2023-08-06T09:39:06;2.10;;;1.00;;
70707;SDS011;58277;47.316;18.908;2023-08-06T09:41:35;1.70;;;1.42;;
70707;SDS011;58277;47.316;18.908;2023-08-06T09:43:58;1.70;;;1.30;;
70707;SDS011;58277;47.316;18.908;2023-08-06T09:46:21;1.50;;;1.00;;
70707;SDS011;58277;47.316;18.908;2023-08-06T09:48:45;1.05;;;0.95;;
70707;SDS011;58277;47.316;18.908;2023-08-06T09:51:12;1.48;;;0.98;;
70707;SDS011;58277;47.316;18.908;2023-08-06T09:53:36;1.48;;;0.90;;
70707;SDS011;58277;47.316;18.908;2023-08-06T09:56:00;2.97;;;0.90;;
70707;SDS011;58277;47.316;18.908;2023-08-06T09:58:23;4.15;;;1.10;;
70707;SDS011;58277;47.316;18.908;2023-08-06T10:00:47;1.83;;;0.90;;
70707;SDS011;58277;47.316;18.908;2023-08-06T10:03:10;1.50;;;1.00;;
70707;SDS011;58277;47.316;18.908;2023-08-06T10:05:33;1.83;;;0.80;;
70707;SDS011;58277;47.316;18.908;2023-08-06T10:07:56;1.23;;;0.80;;
70707;SDS011;58277;47.316;18.908;2023-08-06T10:10:20;1.20;;;0.90;;
70707;SDS011;58277;47.316;18.908;2023-08-06T10:12:44;1.60;;;0.80;;
70707;SDS011;58277;47.316;18.908;2023-08-06T10:15:11;1.15;;;0.80;;
70707;SDS011;58277;47.316;18.908;2023-08-06T10:17:36;2.10;;;1.00;;
70707;SDS011;58277;47.316;18.908;2023-08-06T10:20:12;1.42;;;1.00;;
70707;SDS011;58277;47.316;18.908;2023-08-06T10:22:35;1.30;;;1.00;;
70707;SDS011;58277;47.316;18.908;2023-08-06T10:24:59;1.00;;;0.70;;
70707;SDS011;58277;47.316;18.908;2023-08-06T10:27:30;1.27;;;0.90;;
70707;SDS011;58277;47.316;18.908;2023-08-06T10:29:55;1.42;;;0.80;;
70707;SDS011;58277;47.316;18.908;2023-08-06T10:32:20;1.35;;;0.90;;
70707;SDS011;58277;47.316;18.908;2023-08-06T10:37:19;2.10;;;1.13;;
70707;SDS011;58277;47.316;18.908;2023-08-06T10:39:51;1.88;;;1.10;;
70707;SDS011;58277;47.316;18.908;2023-08-06T10:42:21;1.95;;;1.10;;
70707;SDS011;58277;47.316;18.908;2023-08-06T10:47:38;2.65;;;0.90;;
70707;SDS011;58277;47.316;18.908;2023-08-06T10:50:06;1.77;;;1.00;;
70707;SDS011;58277;47.316;18.908;2023-08-06T10:52:40;1.88;;;1.10;;
70707;SDS011;58277;47.316;18.908;2023-08-06T10:55:02;3.67;;;1.20;;
70707;SDS011;58277;47.316;18.908;2023-08-06T10:57:25;2.53;;;1.10;;
70707;SDS011;58277;47.316;18.908;2023-08-06T10:59:48;1.90;;;1.10;;
70707;SDS011;58277;47.316;18.908;2023-08-06T11:02:15;1.50;;;0.82;;
70707;SDS011;58277;47.316;18.908;2023-08-06T11:04:38;3.10;;;1.20;;
70707;SDS011;58277;47.316;18.908;2023-08-06T11:07:01;1.83;;;1.23;;
70707;SDS011;58277;47.316;18.908;2023-08-06T11:09:23;1.52;;;1.10;;
70707;SDS011;58277;47.316;18.908;2023-08-06T11:11:46;1.80;;;1.15;;
70707;SDS011;58277;47.316;18.908;2023-08-06T11:14:14;1.70;;;0.90;;
70707;SDS011;58277;47.316;18.908;2023-08-06T11:16:37;1.52;;;1.13;;
70707;SDS011;58277;47.316;18.908;2023-08-06T11:19:00;1.63;;;1.05;;
70707;SDS011;58277;47.316;18.908;2023-08-06T11:21:23;1.77;;;1.13;;
70707;SDS011;58277;47.316;18.908;2023-08-06T11:23:47;2.03;;;1.10;;
70707;SDS011;58277;47.316;18.908;2023-08-06T11:26:10;1.60;;;1.02;;
70707;SDS011;58277;47.316;18.908;2023-08-06T11:28:33;1.63;;;1.20;;
70707;SDS011;58277;47.316;18.908;2023-08-06T11:30:55;1.50;;;1.20;;
70707;SDS011;58277;47.316;18.908;2023-08-06T11:33:25;2.17;;;1.20;;
70707;SDS011;58277;47.316;18.908;2023-08-06T11:35:49;2.25;;;1.20;;
70707;SDS011;58277;47.316;18.908;2023-08-06T11:38:13;1.60;;;1.10;;
70707;SDS011;58277;47.316;18.908;2023-08-06T11:40:38;1.40;;;1.10;;
70707;SDS011;58277;47.316;18.908;2023-08-06T11:43:01;1.70;;;1.20;;
70707;SDS011;58277;47.316;18.908;2023-08-06T11:45:24;1.58;;;1.10;;
70707;SDS011;58277;47.316;18.908;2023-08-06T11:47:49;1.65;;;1.10;;
70707;SDS011;58277;47.316;18.908;2023-08-06T11:50:21;2.15;;;1.30;;
70707;SDS011;58277;47.316;18.908;2023-08-06T11:52:47;2.13;;;1.30;;
70707;SDS011;58277;47.316;18.908;2023-08-06T11:55:14;2.45;;;1.33;;
70707;SDS011;58277;47.316;18.908;2023-08-06T11:57:38;1.90;;;1.30;;
70707;SDS011;58277;47.316;18.908;2023-08-06T12:00:03;1.70;;;1.10;;
70707;SDS011;58277;47.316;18.908;2023-08-06T12:02:34;1.95;;;0.98;;
70707;SDS011;58277;47.316;18.908;2023-08-06T12:05:00;1.60;;;1.30;;
70707;SDS011;58277;47.316;18.908;2023-08-06T12:10:13;2.05;;;1.38;;
70707;SDS011;58277;47.316;18.908;2023-08-06T12:12:37;2.28;;;1.50;;
70707;SDS011;58277;47.316;18.908;2023-08-06T12:15:01;2.58;;;1.30;;
70707;SDS011;58277;47.316;18.908;2023-08-06T12:17:25;2.40;;;1.45;;
70707;SDS011;58277;47.316;18.908;2023-08-06T12:19:48;2.08;;;1.40;;
70707;SDS011;58277;47.316;18.908;2023-08-06T12:22:11;2.20;;;1.50;;
70707;SDS011;58277;47.316;18.908;2023-08-06T12:24:35;3.75;;;1.60;;
70707;SDS011;58277;47.316;18.908;2023-08-06T12:26:58;2.58;;;1.60;;
70707;SDS011;58277;47.316;18.908;2023-08-06T12:29:20;3.35;;;1.40;;
70707;SDS011;58277;47.316;18.908;2023-08-06T12:31:43;2.75;;;1.30;;
70707;SDS011;58277;47.316;18.908;2023-08-06T12:34:06;1.70;;;1.20;;
70707;SDS011;58277;47.316;18.908;2023-08-06T12:36:28;3.13;;;1.40;;
70707;SDS011;58277;47.316;18.908;2023-08-06T12:38:51;2.25;;;1.55;;
70707;SDS011;58277;47.316;18.908;2023-08-06T12:41:14;2.20;;;1.45;;
70707;SDS011;58277;47.316;18.908;2023-08-06T12:43:36;1.98;;;1.50;;
70707;SDS011;58277;47.316;18.908;2023-08-06T12:45:59;1.95;;;1.50;;
70707;SDS011;58277;47.316;18.908;2023-08-06T12:48:22;2.13;;;1.50;;
70707;SDS011;58277;47.316;18.908;2023-08-06T12:50:45;2.58;;;1.50;;
70707;SDS011;58277;47.316;18.908;2023-08-06T12:53:07;2.35;;;1.48;;
70707;SDS011;58277;47.316;18.908;2023-08-06T12:55:31;2.30;;;1.70;;
70707;SDS011;58277;47.316;18.908;2023-08-06T12:57:54;2.60;;;1.50;;
70707;SDS011;58277;47.316;18.908;2023-08-06T13:00:20;3.20;;;2.00;;
70707;SDS011;58277;47.316;18.908;2023-08-06T13:02:43;2.28;;;1.70;;
70707;SDS011;58277;47.316;18.908;2023-08-06T13:05:06;3.22;;;1.65;;
70707;SDS011;58277;47.316;18.908;2023-08-06T13:07:29;2.40;;;1.80;;
70707;SDS011;58277;47.316;18.908;2023-08-06T13:09:52;2.20;;;1.80;;
70707;SDS011;58277;47.316;18.908;2023-08-06T13:12:16;2.47;;;1.73;;
70707;SDS011;58277;47.316;18.908;2023-08-06T13:14:41;2.45;;;1.83;;
70707;SDS011;58277;47.316;18.908;2023-08-06T13:17:04;2.92;;;1.60;;
70707;SDS011;58277;47.316;18.908;2023-08-06T13:19:29;2.45;;;1.65;;
70707;SDS011;58277;47.316;18.908;2023-08-06T13:21:58;2.00;;;1.48;;
70707;SDS011;58277;47.316;18.908;2023-08-06T13:24:26;2.42;;;1.60;;
70707;SDS011;58277;47.316;18.908;2023-08-06T13:26:49;1.83;;;1.10;;
70707;SDS011;58277;47.316;18.908;2023-08-06T13:29:12;2.47;;;1.42;;
70707;SDS011;58277;47.316;18.908;2023-08-06T13:31:35;2.22;;;1.40;;
70707;SDS011;58277;47.316;18.908;2023-08-06T13:33:57;2.30;;;1.40;;
70707;SDS011;58277;47.316;18.908;2023-08-06T13:36:21;1.70;;;1.38;;
70707;SDS011;58277;47.316;18.908;2023-08-06T13:38:45;2.72;;;1.25;;
70707;SDS011;58277;47.316;18.908;2023-08-06T13:41:08;3.63;;;1.40;;
70707;SDS011;58277;47.316;18.908;2023-08-06T13:43:31;3.40;;;1.73;;
70707;SDS011;58277;47.316;18.908;2023-08-06T13:45:53;2.10;;;1.70;;
70707;SDS011;58277;47.316;18.908;2023-08-06T13:48:58;4.65;;;2.00;;
70707;SDS011;58277;47.316;18.908;2023-08-06T13:51:21;3.08;;;2.10;;
70707;SDS011;58277;47.316;18.908;2023-08-06T13:53:43;2.78;;;2.03;;
70707;SDS011;58277;47.316;18.908;2023-08-06T13:56:06;3.97;;;2.30;;
70707;SDS011;58277;47.316;18.908;2023-08-06T13:58:35;3.45;;;2.50;;
70707;SDS011;58277;47.316;18.908;2023-08-06T14:00:57;3.17;;;2.40;;
70707;SDS011;58277;47.316;18.908;2023-08-06T14:03:20;2.90;;;2.05;;
70707;SDS011;58277;47.316;18.908;2023-08-06T14:05:43;3.03;;;2.30;;
70707;SDS011;58277;47.316;18.908;2023-08-06T14:08:06;2.60;;;1.92;;
70707;SDS011;58277;47.316;18.908;2023-08-06T14:10:28;3.65;;;2.20;;
70707;SDS011;58277;47.316;18.908;2023-08-06T14:12:51;3.67;;;2.58;;
70707;SDS011;58277;47.316;18.908;2023-08-06T14:15:31;4.18;;;2.28;;
70707;SDS011;58277;47.316;18.908;2023-08-06T14:17:55;3.03;;;2.38;;
70707;SDS011;58277;47.316;18.908;2023-08-06T14:20:18;3.40;;;2.08;;
70707;SDS011;58277;47.316;18.908;2023-08-06T14:22:41;2.60;;;1.80;;
70707;SDS011;58277;47.316;18.908;2023-08-06T14:25:04;3.08;;;1.80;;
70707;SDS011;58277;47.316;18.908;2023-08-06T14:27:27;2.63;;;1.70;;
70707;SDS011;58277;47.316;18.908;2023-08-06T14:29:50;3.20;;;1.80;;
70707;SDS011;58277;47.316;18.908;2023-08-06T14:32:13;2.15;;;1.65;;
70707;SDS011;58277;47.316;18.908;2023-08-06T14:34:35;3.05;;;1.77;;
70707;SDS011;58277;47.316;18.908;2023-08-06T14:36:58;2.70;;;1.70;;